Reelsville, Indiana
Current Conditions -  °F | °C
As of 2:15 AM on Saturday 25 Oct 2014 (Local Time) from K4I7 Reporting Station
Haze Haze  
Wind Chill: 48°   Ceiling: 9000
Heat Index: 48°   Visibility: 5mi
Dew Point: 48°   Wind: 0mph
Humidity: 100%   Direction: NA
Pressure: 30.01"   Gusts: NA
Location:  39.56°N, 86.97°W
Report Text: K4I7 250615Z AUTO 00000KT 5SM BR BKN090 09/09 A3001 RMK AO2
Loading
Personal Weather Stations






























Interactive Weather Map
Tropical Storm Tracking
New forecast layout! Learn more

10-Day Weather Forecast

Advertisements
Track Severe Weather on mobile